sensor_id;sensor_type;location;lat;lon;timestamp;P1;durP1;ratioP1;P2;durP2;ratioP2
11616;SDS011;5864;52.998;9.068;2023-03-02T00:02:19;40.70;;;17.00;;
11616;SDS011;5864;52.998;9.068;2023-03-02T00:05:05;30.35;;;15.80;;
11616;SDS011;5864;52.998;9.068;2023-03-02T00:07:52;32.13;;;16.23;;
11616;SDS011;5864;52.998;9.068;2023-03-02T00:10:40;26.10;;;16.00;;
11616;SDS011;5864;52.998;9.068;2023-03-02T00:13:25;27.23;;;15.68;;
11616;SDS011;5864;52.998;9.068;2023-03-02T00:16:12;28.05;;;16.40;;
11616;SDS011;5864;52.998;9.068;2023-03-02T00:18:58;38.60;;;15.63;;
11616;SDS011;5864;52.998;9.068;2023-03-02T00:21:44;25.13;;;14.23;;
11616;SDS011;5864;52.998;9.068;2023-03-02T00:24:30;21.83;;;14.25;;
11616;SDS011;5864;52.998;9.068;2023-03-02T00:27:17;25.58;;;15.05;;
11616;SDS011;5864;52.998;9.068;2023-03-02T00:30:05;40.53;;;15.80;;
11616;SDS011;5864;52.998;9.068;2023-03-02T00:32:51;23.23;;;14.20;;
11616;SDS011;5864;52.998;9.068;2023-03-02T00:35:37;31.15;;;15.07;;
11616;SDS011;5864;52.998;9.068;2023-03-02T00:38:22;28.13;;;14.70;;
11616;SDS011;5864;52.998;9.068;2023-03-02T00:41:10;23.23;;;14.02;;
11616;SDS011;5864;52.998;9.068;2023-03-02T00:43:57;30.53;;;14.50;;
11616;SDS011;5864;52.998;9.068;2023-03-02T00:46:43;28.60;;;13.70;;
11616;SDS011;5864;52.998;9.068;2023-03-02T00:49:29;24.40;;;14.63;;
11616;SDS011;5864;52.998;9.068;2023-03-02T00:52:15;34.63;;;13.87;;
11616;SDS011;5864;52.998;9.068;2023-03-02T00:55:01;26.30;;;14.57;;
11616;SDS011;5864;52.998;9.068;2023-03-02T00:57:47;34.67;;;14.70;;
11616;SDS011;5864;52.998;9.068;2023-03-02T01:00:39;35.80;;;14.13;;
11616;SDS011;5864;52.998;9.068;2023-03-02T01:03:24;22.08;;;13.60;;
11616;SDS011;5864;52.998;9.068;2023-03-02T01:06:13;32.90;;;13.67;;
11616;SDS011;5864;52.998;9.068;2023-03-02T01:08:59;21.83;;;12.57;;
11616;SDS011;5864;52.998;9.068;2023-03-02T01:11:45;26.37;;;13.40;;
11616;SDS011;5864;52.998;9.068;2023-03-02T01:14:31;30.27;;;13.97;;
11616;SDS011;5864;52.998;9.068;2023-03-02T01:17:18;33.65;;;13.80;;
11616;SDS011;5864;52.998;9.068;2023-03-02T01:20:05;19.88;;;13.15;;
11616;SDS011;5864;52.998;9.068;2023-03-02T01:22:52;21.00;;;13.25;;
11616;SDS011;5864;52.998;9.068;2023-03-02T01:25:37;31.98;;;14.75;;
11616;SDS011;5864;52.998;9.068;2023-03-02T01:28:23;31.75;;;14.55;;
11616;SDS011;5864;52.998;9.068;2023-03-02T01:31:08;82.50;;;16.60;;
11616;SDS011;5864;52.998;9.068;2023-03-02T01:33:55;41.05;;;14.57;;
11616;SDS011;5864;52.998;9.068;2023-03-02T01:36:41;28.48;;;15.05;;
11616;SDS011;5864;52.998;9.068;2023-03-02T01:39:28;22.15;;;14.13;;
11616;SDS011;5864;52.998;9.068;2023-03-02T01:42:14;28.45;;;14.45;;
11616;SDS011;5864;52.998;9.068;2023-03-02T01:44:59;23.40;;;13.63;;
11616;SDS011;5864;52.998;9.068;2023-03-02T01:47:45;24.42;;;13.65;;
11616;SDS011;5864;52.998;9.068;2023-03-02T01:50:32;25.45;;;14.18;;
11616;SDS011;5864;52.998;9.068;2023-03-02T01:53:18;24.75;;;13.93;;
11616;SDS011;5864;52.998;9.068;2023-03-02T01:56:05;30.27;;;14.80;;
11616;SDS011;5864;52.998;9.068;2023-03-02T01:58:52;39.90;;;14.70;;
11616;SDS011;5864;52.998;9.068;2023-03-02T02:01:46;42.67;;;15.60;;
11616;SDS011;5864;52.998;9.068;2023-03-02T02:04:35;22.52;;;13.90;;
11616;SDS011;5864;52.998;9.068;2023-03-02T02:07:25;26.85;;;14.98;;
11616;SDS011;5864;52.998;9.068;2023-03-02T02:10:11;33.72;;;15.75;;
11616;SDS011;5864;52.998;9.068;2023-03-02T02:12:57;31.50;;;15.93;;
11616;SDS011;5864;52.998;9.068;2023-03-02T02:15:43;45.03;;;15.98;;
11616;SDS011;5864;52.998;9.068;2023-03-02T02:18:28;36.90;;;16.15;;
11616;SDS011;5864;52.998;9.068;2023-03-02T02:21:14;27.05;;;15.52;;
11616;SDS011;5864;52.998;9.068;2023-03-02T02:24:06;44.45;;;16.23;;
11616;SDS011;5864;52.998;9.068;2023-03-02T02:26:57;34.47;;;16.38;;
11616;SDS011;5864;52.998;9.068;2023-03-02T02:29:43;56.47;;;16.80;;
11616;SDS011;5864;52.998;9.068;2023-03-02T02:32:32;50.28;;;18.75;;
11616;SDS011;5864;52.998;9.068;2023-03-02T02:35:22;50.10;;;17.55;;
11616;SDS011;5864;52.998;9.068;2023-03-02T02:38:10;40.58;;;17.05;;
11616;SDS011;5864;52.998;9.068;2023-03-02T02:41:00;54.17;;;17.25;;
11616;SDS011;5864;52.998;9.068;2023-03-02T02:43:51;41.50;;;17.92;;
11616;SDS011;5864;52.998;9.068;2023-03-02T02:46:37;84.38;;;19.67;;
11616;SDS011;5864;52.998;9.068;2023-03-02T02:49:26;50.30;;;18.98;;
11616;SDS011;5864;52.998;9.068;2023-03-02T02:52:18;87.15;;;20.13;;
11616;SDS011;5864;52.998;9.068;2023-03-02T02:55:08;35.85;;;18.25;;
11616;SDS011;5864;52.998;9.068;2023-03-02T02:58:00;62.83;;;18.52;;
11616;SDS011;5864;52.998;9.068;2023-03-02T03:00:54;49.92;;;18.35;;
11616;SDS011;5864;52.998;9.068;2023-03-02T03:03:39;33.78;;;18.00;;
11616;SDS011;5864;52.998;9.068;2023-03-02T03:06:31;50.40;;;18.35;;
11616;SDS011;5864;52.998;9.068;2023-03-02T03:09:21;35.95;;;18.08;;
11616;SDS011;5864;52.998;9.068;2023-03-02T03:12:12;38.50;;;18.67;;
11616;SDS011;5864;52.998;9.068;2023-03-02T03:15:00;63.22;;;19.08;;
11616;SDS011;5864;52.998;9.068;2023-03-02T03:17:53;36.03;;;19.40;;
11616;SDS011;5864;52.998;9.068;2023-03-02T03:20:39;47.70;;;20.17;;
11616;SDS011;5864;52.998;9.068;2023-03-02T03:23:25;80.38;;;21.42;;
11616;SDS011;5864;52.998;9.068;2023-03-02T03:26:10;39.05;;;18.58;;
11616;SDS011;5864;52.998;9.068;2023-03-02T03:28:56;52.17;;;20.33;;
11616;SDS011;5864;52.998;9.068;2023-03-02T03:31:42;64.35;;;21.35;;
11616;SDS011;5864;52.998;9.068;2023-03-02T03:34:29;67.50;;;21.67;;
11616;SDS011;5864;52.998;9.068;2023-03-02T03:37:16;59.42;;;21.17;;
11616;SDS011;5864;52.998;9.068;2023-03-02T03:40:03;48.63;;;19.88;;
11616;SDS011;5864;52.998;9.068;2023-03-02T03:42:52;108.03;;;24.13;;
11616;SDS011;5864;52.998;9.068;2023-03-02T03:45:37;85.97;;;21.75;;
11616;SDS011;5864;52.998;9.068;2023-03-02T03:48:23;46.33;;;20.90;;
11616;SDS011;5864;52.998;9.068;2023-03-02T03:51:10;61.88;;;20.38;;
11616;SDS011;5864;52.998;9.068;2023-03-02T03:53:55;50.33;;;20.92;;
11616;SDS011;5864;52.998;9.068;2023-03-02T03:56:44;57.08;;;20.73;;
11616;SDS011;5864;52.998;9.068;2023-03-02T03:59:32;77.80;;;20.08;;
11616;SDS011;5864;52.998;9.068;2023-03-02T04:02:18;48.05;;;21.20;;
11616;SDS011;5864;52.998;9.068;2023-03-02T04:05:05;66.40;;;19.75;;
11616;SDS011;5864;52.998;9.068;2023-03-02T04:07:52;42.13;;;18.20;;
11616;SDS011;5864;52.998;9.068;2023-03-02T04:10:37;64.47;;;19.77;;
11616;SDS011;5864;52.998;9.068;2023-03-02T04:13:23;53.55;;;20.10;;
11616;SDS011;5864;52.998;9.068;2023-03-02T04:16:09;44.78;;;20.58;;
11616;SDS011;5864;52.998;9.068;2023-03-02T04:18:55;61.72;;;20.30;;
11616;SDS011;5864;52.998;9.068;2023-03-02T04:21:41;47.40;;;19.17;;
11616;SDS011;5864;52.998;9.068;2023-03-02T04:24:30;44.00;;;18.88;;
11616;SDS011;5864;52.998;9.068;2023-03-02T04:27:16;71.82;;;19.23;;
11616;SDS011;5864;52.998;9.068;2023-03-02T04:30:03;49.83;;;18.15;;
11616;SDS011;5864;52.998;9.068;2023-03-02T04:32:49;49.92;;;18.58;;
11616;SDS011;5864;52.998;9.068;2023-03-02T04:35:35;73.47;;;17.95;;
11616;SDS011;5864;52.998;9.068;2023-03-02T04:38:21;36.13;;;17.02;;
11616;SDS011;5864;52.998;9.068;2023-03-02T04:41:08;51.00;;;19.10;;
11616;SDS011;5864;52.998;9.068;2023-03-02T04:43:54;36.67;;;16.23;;
11616;SDS011;5864;52.998;9.068;2023-03-02T04:46:41;70.40;;;18.08;;
11616;SDS011;5864;52.998;9.068;2023-03-02T04:49:27;29.77;;;15.70;;
11616;SDS011;5864;52.998;9.068;2023-03-02T04:52:12;84.60;;;17.85;;
11616;SDS011;5864;52.998;9.068;2023-03-02T04:54:58;32.38;;;16.77;;
11616;SDS011;5864;52.998;9.068;2023-03-02T04:57:46;44.95;;;18.13;;
11616;SDS011;5864;52.998;9.068;2023-03-02T05:00:32;78.45;;;18.38;;
11616;SDS011;5864;52.998;9.068;2023-03-02T05:03:17;40.25;;;17.65;;
11616;SDS011;5864;52.998;9.068;2023-03-02T05:06:03;34.58;;;17.70;;
11616;SDS011;5864;52.998;9.068;2023-03-02T05:08:49;51.53;;;19.02;;
11616;SDS011;5864;52.998;9.068;2023-03-02T05:11:35;52.60;;;17.70;;
11616;SDS011;5864;52.998;9.068;2023-03-02T05:14:23;42.92;;;17.75;;
11616;SDS011;5864;52.998;9.068;2023-03-02T05:17:09;68.97;;;18.23;;
11616;SDS011;5864;52.998;9.068;2023-03-02T05:19:54;43.78;;;17.27;;
11616;SDS011;5864;52.998;9.068;2023-03-02T05:22:40;49.92;;;18.35;;
11616;SDS011;5864;52.998;9.068;2023-03-02T05:25:27;55.00;;;18.30;;
11616;SDS011;5864;52.998;9.068;2023-03-02T05:28:14;51.33;;;16.90;;
11616;SDS011;5864;52.998;9.068;2023-03-02T05:31:02;61.55;;;16.35;;
11616;SDS011;5864;52.998;9.068;2023-03-02T05:33:48;31.70;;;15.38;;
11616;SDS011;5864;52.998;9.068;2023-03-02T05:36:33;59.13;;;16.27;;
11616;SDS011;5864;52.998;9.068;2023-03-02T05:39:19;46.05;;;15.60;;
11616;SDS011;5864;52.998;9.068;2023-03-02T05:42:05;31.70;;;15.35;;
11616;SDS011;5864;52.998;9.068;2023-03-02T05:44:50;34.58;;;15.32;;
11616;SDS011;5864;52.998;9.068;2023-03-02T05:47:38;36.75;;;16.08;;
11616;SDS011;5864;52.998;9.068;2023-03-02T05:50:23;30.98;;;15.68;;
11616;SDS011;5864;52.998;9.068;2023-03-02T05:53:09;54.35;;;14.18;;
11616;SDS011;5864;52.998;9.068;2023-03-02T05:55:55;43.90;;;14.93;;
11616;SDS011;5864;52.998;9.068;2023-03-02T05:58:40;27.98;;;14.32;;
11616;SDS011;5864;52.998;9.068;2023-03-02T06:01:26;40.35;;;14.05;;
11616;SDS011;5864;52.998;9.068;2023-03-02T06:04:13;27.70;;;14.02;;
11616;SDS011;5864;52.998;9.068;2023-03-02T06:06:58;31.48;;;14.10;;
11616;SDS011;5864;52.998;9.068;2023-03-02T06:09:44;25.77;;;13.68;;
11616;SDS011;5864;52.998;9.068;2023-03-02T06:12:29;76.95;;;15.65;;
11616;SDS011;5864;52.998;9.068;2023-03-02T06:15:15;37.10;;;14.38;;
11616;SDS011;5864;52.998;9.068;2023-03-02T06:18:01;35.83;;;14.48;;
11616;SDS011;5864;52.998;9.068;2023-03-02T06:20:48;31.83;;;15.43;;
11616;SDS011;5864;52.998;9.068;2023-03-02T06:23:33;23.35;;;13.18;;
11616;SDS011;5864;52.998;9.068;2023-03-02T06:26:19;28.83;;;13.60;;
11616;SDS011;5864;52.998;9.068;2023-03-02T06:29:04;35.87;;;15.10;;
11616;SDS011;5864;52.998;9.068;2023-03-02T06:31:50;32.75;;;14.25;;
11616;SDS011;5864;52.998;9.068;2023-03-02T06:34:36;38.17;;;14.52;;
11616;SDS011;5864;52.998;9.068;2023-03-02T06:37:24;33.30;;;15.27;;
11616;SDS011;5864;52.998;9.068;2023-03-02T06:40:10;32.80;;;14.13;;
11616;SDS011;5864;52.998;9.068;2023-03-02T06:42:56;56.10;;;14.80;;
11616;SDS011;5864;52.998;9.068;2023-03-02T06:45:43;37.35;;;15.18;;
11616;SDS011;5864;52.998;9.068;2023-03-02T06:48:29;26.27;;;14.30;;
11616;SDS011;5864;52.998;9.068;2023-03-02T06:51:15;62.80;;;15.05;;
11616;SDS011;5864;52.998;9.068;2023-03-02T06:54:02;22.60;;;13.20;;
11616;SDS011;5864;52.998;9.068;2023-03-02T06:56:49;25.02;;;13.45;;
11616;SDS011;5864;52.998;9.068;2023-03-02T06:59:35;45.08;;;12.82;;
11616;SDS011;5864;52.998;9.068;2023-03-02T07:02:21;20.95;;;11.90;;
11616;SDS011;5864;52.998;9.068;2023-03-02T07:05:07;29.23;;;13.13;;
11616;SDS011;5864;52.998;9.068;2023-03-02T07:07:53;21.43;;;11.90;;
11616;SDS011;5864;52.998;9.068;2023-03-02T07:10:40;34.47;;;13.45;;
11616;SDS011;5864;52.998;9.068;2023-03-02T07:13:25;30.77;;;13.48;;
11616;SDS011;5864;52.998;9.068;2023-03-02T07:16:13;23.00;;;12.13;;
11616;SDS011;5864;52.998;9.068;2023-03-02T07:18:59;23.38;;;13.00;;
11616;SDS011;5864;52.998;9.068;2023-03-02T07:21:44;25.00;;;12.95;;
11616;SDS011;5864;52.998;9.068;2023-03-02T07:24:30;65.38;;;14.57;;
11616;SDS011;5864;52.998;9.068;2023-03-02T07:27:17;35.45;;;14.90;;
11616;SDS011;5864;52.998;9.068;2023-03-02T07:30:03;50.47;;;14.38;;
11616;SDS011;5864;52.998;9.068;2023-03-02T07:32:50;23.60;;;12.68;;
11616;SDS011;5864;52.998;9.068;2023-03-02T07:35:35;27.05;;;13.40;;
11616;SDS011;5864;52.998;9.068;2023-03-02T07:38:21;25.00;;;13.63;;
11616;SDS011;5864;52.998;9.068;2023-03-02T07:41:07;26.25;;;13.70;;
11616;SDS011;5864;52.998;9.068;2023-03-02T07:43:56;28.98;;;14.15;;
11616;SDS011;5864;52.998;9.068;2023-03-02T07:46:41;27.13;;;13.90;;
11616;SDS011;5864;52.998;9.068;2023-03-02T07:49:27;22.92;;;12.38;;
11616;SDS011;5864;52.998;9.068;2023-03-02T07:52:12;43.42;;;13.60;;
11616;SDS011;5864;52.998;9.068;2023-03-02T07:54:58;26.67;;;11.75;;
11616;SDS011;5864;52.998;9.068;2023-03-02T07:57:44;34.65;;;14.23;;
11616;SDS011;5864;52.998;9.068;2023-03-02T08:00:31;23.17;;;13.38;;
11616;SDS011;5864;52.998;9.068;2023-03-02T08:03:17;47.05;;;14.27;;
11616;SDS011;5864;52.998;9.068;2023-03-02T08:06:03;62.17;;;14.45;;
11616;SDS011;5864;52.998;9.068;2023-03-02T08:08:50;39.95;;;13.60;;
11616;SDS011;5864;52.998;9.068;2023-03-02T08:11:36;36.47;;;13.93;;
11616;SDS011;5864;52.998;9.068;2023-03-02T08:14:22;23.25;;;12.48;;
11616;SDS011;5864;52.998;9.068;2023-03-02T08:17:09;32.88;;;13.30;;
11616;SDS011;5864;52.998;9.068;2023-03-02T08:19:54;35.92;;;13.40;;
11616;SDS011;5864;52.998;9.068;2023-03-02T08:22:40;36.42;;;14.23;;
11616;SDS011;5864;52.998;9.068;2023-03-02T08:25:26;22.75;;;13.52;;
11616;SDS011;5864;52.998;9.068;2023-03-02T08:28:11;25.52;;;13.45;;
11616;SDS011;5864;52.998;9.068;2023-03-02T08:30:57;21.95;;;12.60;;
11616;SDS011;5864;52.998;9.068;2023-03-02T08:33:45;30.92;;;14.30;;
11616;SDS011;5864;52.998;9.068;2023-03-02T08:36:30;40.53;;;13.98;;
11616;SDS011;5864;52.998;9.068;2023-03-02T08:39:16;35.55;;;13.32;;
11616;SDS011;5864;52.998;9.068;2023-03-02T08:42:02;28.05;;;11.75;;
11616;SDS011;5864;52.998;9.068;2023-03-02T08:44:47;28.17;;;13.00;;
11616;SDS011;5864;52.998;9.068;2023-03-02T08:47:33;38.00;;;14.30;;
11616;SDS011;5864;52.998;9.068;2023-03-02T08:50:20;25.05;;;12.52;;
11616;SDS011;5864;52.998;9.068;2023-03-02T08:53:07;21.25;;;11.98;;
11616;SDS011;5864;52.998;9.068;2023-03-02T08:55:52;28.98;;;11.95;;
11616;SDS011;5864;52.998;9.068;2023-03-02T08:58:38;27.70;;;12.27;;
11616;SDS011;5864;52.998;9.068;2023-03-02T09:01:25;19.90;;;11.50;;
11616;SDS011;5864;52.998;9.068;2023-03-02T09:04:12;31.37;;;12.90;;
11616;SDS011;5864;52.998;9.068;2023-03-02T09:07:00;27.43;;;14.03;;
11616;SDS011;5864;52.998;9.068;2023-03-02T09:09:45;25.87;;;12.43;;
11616;SDS011;5864;52.998;9.068;2023-03-02T09:12:31;26.13;;;14.10;;
11616;SDS011;5864;52.998;9.068;2023-03-02T09:15:17;23.73;;;12.47;;
11616;SDS011;5864;52.998;9.068;2023-03-02T09:18:03;20.83;;;11.43;;
11616;SDS011;5864;52.998;9.068;2023-03-02T09:20:50;17.73;;;10.13;;
11616;SDS011;5864;52.998;9.068;2023-03-02T09:23:37;21.13;;;10.77;;
11616;SDS011;5864;52.998;9.068;2023-03-02T09:26:23;24.87;;;12.20;;
11616;SDS011;5864;52.998;9.068;2023-03-02T09:29:09;17.63;;;9.80;;
11616;SDS011;5864;52.998;9.068;2023-03-02T09:31:56;24.57;;;10.90;;
11616;SDS011;5864;52.998;9.068;2023-03-02T09:34:41;25.00;;;11.27;;
11616;SDS011;5864;52.998;9.068;2023-03-02T09:37:27;22.90;;;11.20;;
11616;SDS011;5864;52.998;9.068;2023-03-02T09:40:16;22.33;;;10.80;;
11616;SDS011;5864;52.998;9.068;2023-03-02T09:43:11;25.07;;;12.00;;
11616;SDS011;5864;52.998;9.068;2023-03-02T09:46:11;26.03;;;11.57;;
11616;SDS011;5864;52.998;9.068;2023-03-02T09:49:05;18.97;;;11.13;;
11616;SDS011;5864;52.998;9.068;2023-03-02T09:52:06;22.53;;;11.10;;
11616;SDS011;5864;52.998;9.068;2023-03-02T09:54:59;19.47;;;10.80;;
11616;SDS011;5864;52.998;9.068;2023-03-02T09:57:47;19.00;;;9.70;;
11616;SDS011;5864;52.998;9.068;2023-03-02T10:00:34;21.33;;;10.43;;
11616;SDS011;5864;52.998;9.068;2023-03-02T10:03:22;19.10;;;10.63;;
11616;SDS011;5864;52.998;9.068;2023-03-02T10:06:11;16.30;;;9.50;;
11616;SDS011;5864;52.998;9.068;2023-03-02T10:08:57;16.03;;;9.63;;
11616;SDS011;5864;52.998;9.068;2023-03-02T10:11:47;24.50;;;10.70;;
11616;SDS011;5864;52.998;9.068;2023-03-02T10:14:42;14.03;;;9.37;;
11616;SDS011;5864;52.998;9.068;2023-03-02T10:17:36;18.47;;;10.70;;
11616;SDS011;5864;52.998;9.068;2023-03-02T10:20:33;23.70;;;11.57;;
11616;SDS011;5864;52.998;9.068;2023-03-02T10:23:31;18.57;;;9.60;;
11616;SDS011;5864;52.998;9.068;2023-03-02T10:26:28;18.23;;;10.03;;
11616;SDS011;5864;52.998;9.068;2023-03-02T10:29:26;16.40;;;10.00;;
11616;SDS011;5864;52.998;9.068;2023-03-02T10:32:22;21.23;;;11.50;;
11616;SDS011;5864;52.998;9.068;2023-03-02T10:35:11;23.03;;;12.50;;
11616;SDS011;5864;52.998;9.068;2023-03-02T10:38:01;29.17;;;11.77;;
11616;SDS011;5864;52.998;9.068;2023-03-02T10:40:56;24.67;;;12.53;;
11616;SDS011;5864;52.998;9.068;2023-03-02T10:43:44;29.13;;;15.17;;
11616;SDS011;5864;52.998;9.068;2023-03-02T10:46:39;22.87;;;12.73;;
11616;SDS011;5864;52.998;9.068;2023-03-02T10:49:27;31.53;;;15.70;;
11616;SDS011;5864;52.998;9.068;2023-03-02T10:52:15;24.60;;;13.27;;
11616;SDS011;5864;52.998;9.068;2023-03-02T10:55:02;23.70;;;13.77;;
11616;SDS011;5864;52.998;9.068;2023-03-02T10:57:57;20.13;;;11.80;;
11616;SDS011;5864;52.998;9.068;2023-03-02T11:00:54;42.80;;;23.70;;
11616;SDS011;5864;52.998;9.068;2023-03-02T11:03:40;21.57;;;12.40;;
11616;SDS011;5864;52.998;9.068;2023-03-02T11:06:27;21.83;;;12.33;;
11616;SDS011;5864;52.998;9.068;2023-03-02T11:09:13;18.30;;;11.30;;
11616;SDS011;5864;52.998;9.068;2023-03-02T11:11:59;21.77;;;11.70;;
11616;SDS011;5864;52.998;9.068;2023-03-02T11:14:45;17.70;;;10.67;;
11616;SDS011;5864;52.998;9.068;2023-03-02T11:17:31;18.30;;;11.03;;
11616;SDS011;5864;52.998;9.068;2023-03-02T11:20:21;22.10;;;11.37;;
11616;SDS011;5864;52.998;9.068;2023-03-02T11:23:16;19.17;;;11.17;;
11616;SDS011;5864;52.998;9.068;2023-03-02T11:26:08;19.87;;;11.10;;
11616;SDS011;5864;52.998;9.068;2023-03-02T11:29:02;15.53;;;8.90;;
11616;SDS011;5864;52.998;9.068;2023-03-02T11:31:54;15.20;;;9.43;;
11616;SDS011;5864;52.998;9.068;2023-03-02T11:34:44;15.57;;;10.13;;
11616;SDS011;5864;52.998;9.068;2023-03-02T11:37:33;13.93;;;8.53;;
11616;SDS011;5864;52.998;9.068;2023-03-02T11:40:26;14.40;;;8.70;;
11616;SDS011;5864;52.998;9.068;2023-03-02T11:43:16;13.50;;;9.00;;
11616;SDS011;5864;52.998;9.068;2023-03-02T11:46:03;15.97;;;9.13;;
11616;SDS011;5864;52.998;9.068;2023-03-02T11:48:55;14.47;;;9.30;;
11616;SDS011;5864;52.998;9.068;2023-03-02T11:51:47;11.37;;;8.67;;
11616;SDS011;5864;52.998;9.068;2023-03-02T11:54:40;15.40;;;8.53;;
11616;SDS011;5864;52.998;9.068;2023-03-02T11:57:31;15.80;;;9.30;;
11616;SDS011;5864;52.998;9.068;2023-03-02T12:00:29;15.23;;;9.47;;
11616;SDS011;5864;52.998;9.068;2023-03-02T12:03:19;15.97;;;10.13;;
11616;SDS011;5864;52.998;9.068;2023-03-02T12:06:22;15.27;;;9.17;;
11616;SDS011;5864;52.998;9.068;2023-03-02T12:09:26;16.87;;;10.17;;
11616;SDS011;5864;52.998;9.068;2023-03-02T12:12:22;18.83;;;10.77;;
11616;SDS011;5864;52.998;9.068;2023-03-02T12:15:27;18.10;;;10.97;;
11616;SDS011;5864;52.998;9.068;2023-03-02T12:21:37;18.23;;;10.20;;
11616;SDS011;5864;52.998;9.068;2023-03-02T12:24:26;18.80;;;10.33;;
11616;SDS011;5864;52.998;9.068;2023-03-02T12:27:24;16.57;;;9.53;;
11616;SDS011;5864;52.998;9.068;2023-03-02T12:30:23;16.47;;;10.37;;
11616;SDS011;5864;52.998;9.068;2023-03-02T12:33:17;16.50;;;10.90;;
11616;SDS011;5864;52.998;9.068;2023-03-02T12:36:09;14.03;;;8.73;;
11616;SDS011;5864;52.998;9.068;2023-03-02T12:39:02;15.90;;;9.23;;
11616;SDS011;5864;52.998;9.068;2023-03-02T12:42:06;17.37;;;9.63;;
11616;SDS011;5864;52.998;9.068;2023-03-02T12:45:12;14.90;;;9.43;;
11616;SDS011;5864;52.998;9.068;2023-03-02T12:48:14;20.07;;;10.97;;
11616;SDS011;5864;52.998;9.068;2023-03-02T12:51:11;20.43;;;11.03;;
11616;SDS011;5864;52.998;9.068;2023-03-02T12:54:02;19.37;;;11.20;;
11616;SDS011;5864;52.998;9.068;2023-03-02T12:57:00;19.20;;;10.17;;
11616;SDS011;5864;52.998;9.068;2023-03-02T12:59:50;16.97;;;10.43;;
11616;SDS011;5864;52.998;9.068;2023-03-02T13:02:36;16.07;;;10.00;;
11616;SDS011;5864;52.998;9.068;2023-03-02T13:05:30;21.13;;;12.43;;
11616;SDS011;5864;52.998;9.068;2023-03-02T13:08:18;21.90;;;12.80;;
11616;SDS011;5864;52.998;9.068;2023-03-02T13:11:08;17.30;;;9.97;;
11616;SDS011;5864;52.998;9.068;2023-03-02T13:13:53;19.70;;;11.57;;
11616;SDS011;5864;52.998;9.068;2023-03-02T13:16:39;18.10;;;10.87;;
11616;SDS011;5864;52.998;9.068;2023-03-02T13:19:25;19.93;;;11.00;;
11616;SDS011;5864;52.998;9.068;2023-03-02T13:22:15;21.17;;;12.07;;
11616;SDS011;5864;52.998;9.068;2023-03-02T13:25:01;24.23;;;11.70;;
11616;SDS011;5864;52.998;9.068;2023-03-02T13:27:51;20.80;;;11.40;;
11616;SDS011;5864;52.998;9.068;2023-03-02T13:30:37;21.23;;;11.10;;
11616;SDS011;5864;52.998;9.068;2023-03-02T13:33:31;24.33;;;12.17;;
11616;SDS011;5864;52.998;9.068;2023-03-02T13:36:19;22.77;;;12.17;;
11616;SDS011;5864;52.998;9.068;2023-03-02T13:39:16;24.27;;;11.63;;
11616;SDS011;5864;52.998;9.068;2023-03-02T13:42:04;24.03;;;12.97;;
11616;SDS011;5864;52.998;9.068;2023-03-02T13:44:51;24.23;;;12.63;;
11616;SDS011;5864;52.998;9.068;2023-03-02T13:47:37;26.33;;;12.83;;
11616;SDS011;5864;52.998;9.068;2023-03-02T13:50:27;24.33;;;11.47;;
11616;SDS011;5864;52.998;9.068;2023-03-02T13:53:14;26.37;;;13.17;;
11616;SDS011;5864;52.998;9.068;2023-03-02T13:56:03;28.33;;;13.37;;
11616;SDS011;5864;52.998;9.068;2023-03-02T13:58:49;26.83;;;13.27;;
11616;SDS011;5864;52.998;9.068;2023-03-02T14:01:35;23.20;;;12.20;;
11616;SDS011;5864;52.998;9.068;2023-03-02T14:04:21;25.80;;;12.67;;
11616;SDS011;5864;52.998;9.068;2023-03-02T14:07:07;26.33;;;13.60;;
11616;SDS011;5864;52.998;9.068;2023-03-02T14:09:53;25.67;;;14.30;;
11616;SDS011;5864;52.998;9.068;2023-03-02T14:12:40;29.87;;;14.00;;
11616;SDS011;5864;52.998;9.068;2023-03-02T14:15:39;28.13;;;13.00;;
11616;SDS011;5864;52.998;9.068;2023-03-02T14:18:27;29.30;;;14.23;;
11616;SDS011;5864;52.998;9.068;2023-03-02T14:21:17;30.37;;;13.70;;
11616;SDS011;5864;52.998;9.068;2023-03-02T14:24:03;30.90;;;14.37;;
11616;SDS011;5864;52.998;9.068;2023-03-02T14:26:49;27.90;;;13.80;;
11616;SDS011;5864;52.998;9.068;2023-03-02T14:29:36;33.67;;;14.87;;
11616;SDS011;5864;52.998;9.068;2023-03-02T14:32:22;33.90;;;15.67;;
11616;SDS011;5864;52.998;9.068;2023-03-02T14:35:09;31.63;;;15.03;;
11616;SDS011;5864;52.998;9.068;2023-03-02T14:37:55;36.80;;;15.60;;
11616;SDS011;5864;52.998;9.068;2023-03-02T14:40:41;35.80;;;16.47;;
11616;SDS011;5864;52.998;9.068;2023-03-02T14:43:27;33.40;;;15.10;;
11616;SDS011;5864;52.998;9.068;2023-03-02T14:46:14;33.70;;;15.67;;
11616;SDS011;5864;52.998;9.068;2023-03-02T14:49:00;35.43;;;15.43;;
11616;SDS011;5864;52.998;9.068;2023-03-02T14:51:48;41.83;;;17.87;;
11616;SDS011;5864;52.998;9.068;2023-03-02T14:54:41;32.13;;;16.20;;
11616;SDS011;5864;52.998;9.068;2023-03-02T14:57:30;40.53;;;17.67;;
11616;SDS011;5864;52.998;9.068;2023-03-02T15:00:19;36.37;;;16.50;;
11616;SDS011;5864;52.998;9.068;2023-03-02T15:03:07;38.73;;;17.40;;
11616;SDS011;5864;52.998;9.068;2023-03-02T15:05:56;35.20;;;16.73;;
11616;SDS011;5864;52.998;9.068;2023-03-02T15:08:42;38.03;;;17.37;;
11616;SDS011;5864;52.998;9.068;2023-03-02T15:11:28;37.73;;;17.43;;
11616;SDS011;5864;52.998;9.068;2023-03-02T15:14:14;37.50;;;18.30;;
11616;SDS011;5864;52.998;9.068;2023-03-02T15:16:59;37.20;;;18.90;;
11616;SDS011;5864;52.998;9.068;2023-03-02T15:19:47;38.73;;;17.77;;
11616;SDS011;5864;52.998;9.068;2023-03-02T15:22:32;38.10;;;18.53;;
11616;SDS011;5864;52.998;9.068;2023-03-02T15:25:18;41.83;;;19.87;;
11616;SDS011;5864;52.998;9.068;2023-03-02T15:28:06;46.10;;;21.17;;
11616;SDS011;5864;52.998;9.068;2023-03-02T15:30:52;36.47;;;18.97;;
11616;SDS011;5864;52.998;9.068;2023-03-02T15:33:38;40.70;;;19.20;;
11616;SDS011;5864;52.998;9.068;2023-03-02T15:36:27;40.67;;;18.90;;
11616;SDS011;5864;52.998;9.068;2023-03-02T15:39:13;38.60;;;18.30;;
11616;SDS011;5864;52.998;9.068;2023-03-02T15:41:59;35.70;;;18.30;;
11616;SDS011;5864;52.998;9.068;2023-03-02T15:44:45;35.50;;;17.43;;
11616;SDS011;5864;52.998;9.068;2023-03-02T15:47:31;37.43;;;17.80;;
11616;SDS011;5864;52.998;9.068;2023-03-02T15:50:17;32.97;;;17.03;;
11616;SDS011;5864;52.998;9.068;2023-03-02T15:53:05;34.90;;;17.03;;
11616;SDS011;5864;52.998;9.068;2023-03-02T15:55:50;37.57;;;19.03;;
11616;SDS011;5864;52.998;9.068;2023-03-02T15:58:36;38.47;;;19.23;;
11616;SDS011;5864;52.998;9.068;2023-03-02T16:01:22;36.33;;;17.97;;
11616;SDS011;5864;52.998;9.068;2023-03-02T16:04:09;33.07;;;16.33;;
11616;SDS011;5864;52.998;9.068;2023-03-02T16:06:55;35.20;;;17.43;;
11616;SDS011;5864;52.998;9.068;2023-03-02T16:09:42;32.93;;;17.07;;
11616;SDS011;5864;52.998;9.068;2023-03-02T16:12:28;38.73;;;17.40;;
11616;SDS011;5864;52.998;9.068;2023-03-02T16:15:14;37.03;;;17.53;;
11616;SDS011;5864;52.998;9.068;2023-03-02T16:18:00;30.53;;;16.27;;
11616;SDS011;5864;52.998;9.068;2023-03-02T16:20:46;33.67;;;16.47;;
11616;SDS011;5864;52.998;9.068;2023-03-02T16:23:32;30.17;;;15.97;;
11616;SDS011;5864;52.998;9.068;2023-03-02T16:26:20;32.23;;;16.70;;
11616;SDS011;5864;52.998;9.068;2023-03-02T16:29:05;32.97;;;16.97;;
11616;SDS011;5864;52.998;9.068;2023-03-02T16:31:52;36.43;;;17.07;;
11616;SDS011;5864;52.998;9.068;2023-03-02T16:34:37;32.20;;;17.43;;
11616;SDS011;5864;52.998;9.068;2023-03-02T16:37:23;28.83;;;15.63;;
11616;SDS011;5864;52.998;9.068;2023-03-02T16:40:10;35.73;;;20.27;;
11616;SDS011;5864;52.998;9.068;2023-03-02T16:42:57;31.70;;;17.00;;